Time;durP1;ratioP1;P1;durP2;ratioP2;P2;SDS_P1;SDS_P2;PMS_P1;PMS_P2;Temp;Humidity;BMP_temperature;BMP_pressure;BME280_temperature;BME280_humidity;BME280_pressure;Samples;Min_cycle;Max_cycle;Signal;HPM_P1;HPM_P2
2021/11/22 00:02:04;;;;;;;24.60;15.73;;;4.80;93.80;;;3.22;97.21;97714.06;4965583;28;20489;-69
2021/11/22 00:04:31;;;;;;;24.47;15.30;;;4.70;93.80;;;3.30;96.29;97723.84;4947593;28;20449;-69
2021/11/22 00:06:59;;;;;;;24.30;14.80;;;4.70;94.30;;;3.26;96.80;97723.38;4969539;28;20532;-67
2021/11/22 00:09:26;;;;;;;28.13;15.30;;;4.60;94.30;;;3.42;96.64;97718.97;4973235;28;20456;-68
2021/11/22 00:11:54;;;;;;;31.50;17.80;;;4.70;94.50;;;3.55;96.12;97721.84;4951454;28;20462;-68
2021/11/22 00:14:22;;;;;;;29.10;16.63;;;4.90;94.20;;;3.28;96.85;97720.53;4967614;28;20461;-69
2021/11/22 00:16:49;;;;;;;27.67;16.73;;;4.70;94.20;;;3.42;96.84;97729.66;4966986;28;20488;-68
2021/11/22 00:19:16;;;;;;;24.20;16.10;;;4.70;95.30;;;3.62;95.53;97724.66;4968817;28;20520;-68
2021/11/22 00:21:44;;;;;;;25.80;16.60;;;4.90;94.00;;;3.55;95.32;97729.88;4970087;28;20504;-68
2021/11/22 00:24:11;;;;;;;23.53;14.63;;;4.90;93.20;;;3.44;95.28;97728.44;4954081;28;20457;-68
2021/11/22 00:26:38;;;;;;;23.63;15.33;;;4.80;93.00;;;3.24;96.96;97726.22;4967590;28;20461;-68
2021/11/22 00:29:07;;;;;;;22.83;15.33;;;4.70;93.40;;;3.25;97.27;97732.38;4969623;28;20508;-68
2021/11/22 00:31:36;;;;;;;23.73;14.93;;;4.70;94.30;;;3.26;97.32;97726.03;4967754;28;20458;-68
2021/11/22 00:34:04;;;;;;;25.17;16.17;;;4.70;94.20;;;3.05;97.66;97730.16;4954025;28;20453;-67
2021/11/22 00:36:31;;;;;;;28.37;16.00;;;4.50;95.10;;;2.97;99.05;97736.38;4967834;28;20513;-68
2021/11/22 00:38:58;;;;;;;25.43;16.50;;;4.50;96.90;;;3.01;99.61;97744.88;4964553;28;20981;-68
2021/11/22 00:41:25;;;;;;;29.83;17.17;;;4.40;98.50;;;3.11;99.00;97740.16;4949450;28;20505;-69
2021/11/22 00:43:55;;;;;;;26.30;17.30;;;4.50;98.30;;;3.07;99.50;97749.50;4966180;28;20465;-68
2021/11/22 00:46:22;;;;;;;26.73;16.83;;;4.50;98.00;;;2.98;98.96;97742.56;4951874;28;20461;-68
2021/11/22 00:48:51;;;;;;;28.60;17.27;;;4.50;97.40;;;3.17;98.92;97761.81;4949861;28;20458;-68
2021/11/22 00:51:18;;;;;;;24.80;16.70;;;4.50;99.00;;;3.06;98.99;97766.53;4971847;28;20534;-68
2021/11/22 00:53:45;;;;;;;29.50;17.73;;;4.50;97.90;;;3.01;99.88;97768.91;4966458;28;20472;-67
2021/11/22 00:56:16;;;;;;;28.30;17.90;;;4.50;98.70;;;3.33;99.67;97761.72;4967312;28;20477;-68
2021/11/22 00:58:44;;;;;;;30.23;16.73;;;4.60;99.90;;;3.31;98.32;97758.41;4967789;28;20477;-68
2021/11/22 01:01:11;;;;;;;30.67;18.47;;;4.70;97.30;;;3.23;98.48;97758.44;4965030;28;20518;-67
2021/11/22 01:03:38;;;;;;;27.23;16.70;;;4.70;96.40;;;3.26;98.83;97760.75;4967375;28;20968;-67
2021/11/22 01:06:07;;;;;;;33.53;19.47;;;4.60;98.50;;;3.18;99.61;97760.81;4974814;28;20476;-69
2021/11/22 01:08:34;;;;;;;32.90;19.37;;;4.60;97.60;;;3.11;99.34;97764.19;4966611;28;20472;-67
2021/11/22 01:11:01;;;;;;;36.70;19.57;;;4.60;98.10;;;3.10;99.81;97761.69;4955325;28;20454;-66
2021/11/22 01:13:28;;;;;;;29.10;18.17;;;4.50;98.90;;;3.14;99.40;97765.66;4965813;28;20465;-67
2021/11/22 01:15:55;;;;;;;30.40;18.03;;;4.50;99.60;;;3.17;99.40;97780.50;4968930;28;20473;-68
2021/11/22 01:18:22;;;;;;;28.43;16.30;;;4.50;99.40;;;3.26;98.61;97777.63;4965594;28;20473;-68
2021/11/22 01:20:49;;;;;;;30.63;18.37;;;4.60;98.40;;;3.10;99.07;97773.19;4967059;28;20465;-68
2021/11/22 01:23:18;;;;;;;28.80;17.83;;;4.60;97.90;;;3.03;100.00;97769.53;4957321;28;20485;-67
2021/11/22 01:25:46;;;;;;;35.97;21.50;;;4.50;99.50;;;3.09;99.54;97766.16;4968183;28;20984;-67
2021/11/22 01:28:13;;;;;;;30.60;18.50;;;4.60;99.10;;;3.22;99.96;97775.47;4966283;28;20453;-68
2021/11/22 01:30:41;;;;;;;29.90;19.00;;;4.60;99.40;;;3.10;100.00;97778.50;4965347;28;21068;-67
2021/11/22 01:33:08;;;;;;;32.67;19.50;;;4.60;99.00;;;3.05;100.00;97775.53;4964046;28;21280;-66
2021/11/22 01:35:35;;;;;;;32.83;20.60;;;4.50;99.80;;;3.35;99.86;97777.59;4949638;28;21055;-66
2021/11/22 01:38:03;;;;;;;29.70;17.90;;;4.60;99.90;;;3.29;100.00;97765.78;4972020;28;20474;-67
2021/11/22 01:40:31;;;;;;;33.90;20.07;;;4.70;99.00;;;3.45;99.62;97766.69;4962373;28;21005;-67
2021/11/22 01:42:59;;;;;;;27.83;17.63;;;4.80;99.70;;;3.39;98.90;97766.34;4964261;28;20520;-66
2021/11/22 01:45:27;;;;;;;30.63;18.77;;;4.80;98.50;;;3.28;99.51;97772.13;4946546;28;20466;-66
2021/11/22 01:47:58;;;;;;;31.17;16.17;;;4.70;98.50;;;3.16;100.00;97777.00;4967787;28;20477;-67
2021/11/22 01:50:26;;;;;;;33.03;17.70;;;4.60;99.00;;;3.10;100.00;97770.50;4968648;28;20458;-66
2021/11/22 01:52:55;;;;;;;34.00;19.23;;;4.50;99.90;;;3.10;100.00;97765.16;4969932;28;21114;-66
2021/11/22 01:55:25;;;;;;;32.93;19.60;;;4.50;99.90;;;3.19;100.00;97765.13;4965936;28;20472;-66
2021/11/22 01:57:55;;;;;;;37.60;19.10;;;4.60;99.90;;;3.09;100.00;97765.34;4969290;28;20463;-67
2021/11/22 02:00:27;;;;;;;30.90;18.27;;;4.50;99.90;;;3.17;100.00;97773.31;4963802;28;20564;-66
2021/11/22 02:02:55;;;;;;;34.63;18.40;;;4.60;99.90;;;3.24;100.00;97787.66;4965588;28;20468;-66
2021/11/22 02:05:22;;;;;;;31.47;18.40;;;4.60;99.90;;;3.44;100.00;97778.38;4964385;28;21023;-66
2021/11/22 02:07:50;;;;;;;36.27;18.20;;;4.70;99.90;;;3.34;100.00;97792.78;4967084;28;20461;-67
2021/11/22 02:10:18;;;;;;;29.57;17.57;;;4.80;99.10;;;3.18;100.00;97774.97;4966204;28;21129;-67
2021/11/22 02:12:46;;;;;;;32.03;17.10;;;4.70;99.90;;;3.29;100.00;97788.97;4944926;28;20458;-66
2021/11/22 02:15:16;;;;;;;34.67;18.80;;;4.70;99.90;;;3.22;100.00;97780.81;4969551;28;20478;-67
2021/11/22 02:17:47;;;;;;;31.67;17.80;;;4.70;99.90;;;3.21;100.00;97790.66;4964436;28;20489;-66
2021/11/22 02:20:18;;;;;;;32.07;17.10;;;4.70;99.90;;;3.22;100.00;97792.34;4968073;28;20880;-66
2021/11/22 02:22:47;;;;;;;36.73;18.23;;;4.60;99.90;;;3.32;100.00;97793.94;4968467;28;20468;-66
2021/11/22 02:25:17;;;;;;;37.57;19.50;;;4.70;99.90;;;3.34;100.00;97797.28;4967827;28;20472;-66
2021/11/22 02:27:46;;;;;;;42.57;18.43;;;4.70;99.90;;;3.44;99.95;97805.09;4969279;28;20474;-67
2021/11/22 02:30:15;;;;;;;31.97;18.23;;;4.80;99.60;;;3.30;100.00;97804.81;4966358;28;20497;-67
2021/11/22 02:32:44;;;;;;;34.33;18.13;;;4.70;98.60;;;3.36;99.86;97804.09;4965743;28;20549;-66
2021/11/22 02:35:20;;;;;;;34.23;17.47;;;4.80;98.50;;;3.38;99.99;97802.09;4967805;28;20571;-66
2021/11/22 02:37:48;;;;;;;35.40;17.93;;;4.80;98.40;;;3.44;100.00;97789.06;4969407;28;20983;-66
2021/11/22 02:40:16;;;;;;;35.87;17.93;;;4.80;99.90;;;3.44;99.77;97802.41;4969631;28;20469;-66
2021/11/22 02:42:44;;;;;;;37.37;18.20;;;4.80;99.00;;;3.33;100.00;97811.63;4964918;28;20605;-66
2021/11/22 02:45:14;;;;;;;37.37;18.23;;;4.80;99.10;;;3.31;100.00;97806.47;4964127;28;20489;-66
2021/11/22 02:47:44;;;;;;;33.67;18.80;;;4.70;99.90;;;3.54;100.00;97811.03;4967164;28;20525;-67
2021/11/22 02:50:13;;;;;;;38.37;18.03;;;4.80;99.90;;;3.42;99.63;97807.09;4966119;28;20457;-66
2021/11/22 02:52:43;;;;;;;39.87;17.20;;;4.80;98.60;;;3.54;99.85;97805.69;4965206;28;20469;-66
2021/11/22 02:55:13;;;;;;;35.87;17.60;;;4.90;99.90;;;3.30;100.00;97799.47;4946702;28;20453;-71
2021/11/22 02:57:41;;;;;;;34.70;18.07;;;4.80;99.20;;;3.41;100.00;97816.94;4966802;28;20477;-66
2021/11/22 03:00:13;;;;;;;35.50;17.60;;;4.80;99.90;;;3.65;100.00;97805.28;4967182;28;20468;-66
2021/11/22 03:02:41;;;;;;;32.53;16.67;;;4.90;99.90;;;3.49;99.98;97808.06;4967724;28;20564;-66
2021/11/22 03:05:08;;;;;;;37.67;17.03;;;4.90;98.80;;;3.38;100.00;97818.13;4964879;28;20821;-66
2021/11/22 03:07:36;;;;;;;32.00;15.67;;;4.80;99.50;;;3.28;100.00;97816.66;4967229;28;20524;-68
2021/11/22 03:10:08;;;;;;;33.67;15.77;;;4.80;99.90;;;3.36;100.00;97822.81;4966816;28;20458;-66
2021/11/22 03:12:36;;;;;;;30.17;14.63;;;4.80;99.90;;;3.39;100.00;97819.78;4949604;28;20470;-67
2021/11/22 03:15:04;;;;;;;36.60;15.87;;;4.80;99.90;;;3.26;100.00;97830.19;4971051;28;20486;-67
2021/11/22 03:17:32;;;;;;;29.77;14.20;;;4.70;99.90;;;3.33;100.00;97824.97;4967477;28;20478;-67
2021/11/22 03:19:59;;;;;;;27.67;14.80;;;4.70;99.90;;;3.36;100.00;97830.00;4970465;28;20457;-66
2021/11/22 03:22:26;;;;;;;31.10;14.93;;;4.80;99.90;;;3.34;100.00;97832.00;4951359;28;20461;-66
2021/11/22 03:24:53;;;;;;;29.80;15.57;;;4.80;99.90;;;3.36;100.00;97833.47;4950157;28;20472;-66
2021/11/22 03:27:21;;;;;;;27.87;14.30;;;4.80;99.90;;;3.35;100.00;97829.16;4966643;28;20465;-66
2021/11/22 03:29:49;;;;;;;28.43;14.50;;;4.80;99.90;;;3.54;100.00;97840.41;4969480;28;20465;-66
2021/11/22 03:32:16;;;;;;;31.40;14.57;;;4.90;99.90;;;3.40;100.00;97839.31;4952155;28;20466;-66
2021/11/22 03:34:43;;;;;;;28.93;13.30;;;4.80;99.90;;;3.49;100.00;97837.44;4950736;28;20973;-66
2021/11/22 03:37:10;;;;;;;32.53;14.83;;;4.80;99.90;;;3.52;100.00;97835.25;4968302;28;20502;-66
2021/11/22 03:39:38;;;;;;;26.20;12.57;;;4.90;99.90;;;3.39;100.00;97830.47;4968217;28;20961;-67
2021/11/22 03:42:08;;;;;;;26.43;13.43;;;4.80;99.90;;;3.42;100.00;97841.84;4967215;28;20539;-67
2021/11/22 03:44:37;;;;;;;25.87;12.93;;;4.80;99.90;;;3.44;100.00;97845.16;4949482;28;20567;-67
2021/11/22 03:47:04;;;;;;;27.90;13.50;;;4.80;99.90;;;3.37;100.00;97842.34;4966477;28;20462;-66
2021/11/22 03:49:33;;;;;;;25.50;12.30;;;4.80;99.90;;;3.38;100.00;97842.16;4949644;28;20835;-66
2021/11/22 03:52:01;;;;;;;26.93;13.20;;;4.80;99.90;;;3.40;100.00;97850.81;4966842;28;20937;-67
2021/11/22 03:54:28;;;;;;;25.10;13.30;;;4.80;99.90;;;3.45;100.00;97852.16;4968132;28;20489;-67
2021/11/22 03:56:55;;;;;;;21.77;11.60;;;4.80;99.90;;;3.38;100.00;97847.50;4972370;28;20480;-66
2021/11/22 03:59:22;;;;;;;25.33;14.63;;;4.80;99.90;;;3.34;100.00;97848.03;4971757;28;20463;-66
2021/11/22 04:01:51;;;;;;;27.07;13.67;;;4.80;99.90;;;3.44;100.00;97858.50;4963864;28;20490;-67
2021/11/22 04:04:18;;;;;;;25.67;12.60;;;4.80;99.90;;;3.49;100.00;97856.13;4970562;28;20924;-66
2021/11/22 04:06:45;;;;;;;18.60;11.40;;;4.90;99.90;;;3.47;100.00;97858.16;4973484;28;20866;-67
2021/11/22 04:09:12;;;;;;;22.03;11.80;;;4.80;99.90;;;3.45;100.00;97860.19;4963976;28;20954;-67
2021/11/22 04:11:40;;;;;;;20.70;12.60;;;4.90;99.90;;;3.38;100.00;97860.84;4967830;28;20482;-67
2021/11/22 04:14:07;;;;;;;23.23;11.30;;;4.80;99.90;;;3.54;100.00;97875.13;4967742;28;20451;-67
2021/11/22 04:16:34;;;;;;;23.80;13.00;;;4.90;99.90;;;3.47;100.00;97868.84;4951994;28;20486;-66
2021/11/22 04:19:04;;;;;;;21.00;11.83;;;4.90;99.90;;;3.37;100.00;97867.19;4969657;28;20488;-66
2021/11/22 04:21:31;;;;;;;23.70;10.63;;;4.80;99.90;;;3.43;100.00;97872.88;4969455;28;20457;-66
2021/11/22 04:23:59;;;;;;;25.43;11.70;;;4.80;99.90;;;3.31;100.00;97881.25;4966045;28;20865;-67
2021/11/22 04:26:26;;;;;;;24.30;13.50;;;4.80;99.90;;;3.54;100.00;97881.34;4951374;28;20564;-67
2021/11/22 04:28:53;;;;;;;21.97;12.73;;;4.80;99.90;;;3.56;100.00;97881.13;4950763;28;21159;-68
2021/11/22 04:31:21;;;;;;;22.67;12.17;;;4.90;99.90;;;3.57;100.00;97885.50;4966860;28;20474;-67
2021/11/22 04:33:48;;;;;;;20.80;11.87;;;4.90;99.90;;;3.58;100.00;97892.50;4968480;28;20473;-66
2021/11/22 04:36:17;;;;;;;23.67;12.73;;;5.00;99.90;;;3.38;100.00;97892.91;4971855;28;20509;-65
2021/11/22 04:38:44;;;;;;;26.83;12.10;;;4.90;99.90;;;3.46;100.00;97901.91;4966083;28;20496;-67
2021/11/22 04:41:11;;;;;;;22.70;11.57;;;4.90;99.90;;;3.57;100.00;97900.69;4965567;28;20548;-66
2021/11/22 04:43:38;;;;;;;21.20;11.93;;;4.90;99.90;;;3.62;100.00;97904.50;4963210;28;20469;-66
2021/11/22 04:46:05;;;;;;;19.87;11.63;;;5.00;99.90;;;3.75;100.00;97903.13;4971150;28;20474;-66
2021/11/22 04:48:32;;;;;;;19.70;11.30;;;5.00;99.90;;;3.78;100.00;97908.13;4968022;28;20477;-67
2021/11/22 04:50:59;;;;;;;28.10;11.70;;;5.10;99.90;;;3.60;100.00;97909.19;4966665;28;20524;-67
2021/11/22 04:53:28;;;;;;;21.37;12.40;;;5.00;99.90;;;3.48;100.00;97919.41;4961790;28;20517;-67
2021/11/22 04:55:55;;;;;;;25.40;12.33;;;4.90;99.90;;;3.40;100.00;97919.44;4968941;28;20783;-67
2021/11/22 04:58:22;;;;;;;21.10;12.40;;;4.90;99.90;;;3.39;100.00;97931.13;4969705;28;20900;-67
2021/11/22 05:00:49;;;;;;;19.33;11.20;;;4.80;99.90;;;3.38;100.00;97924.94;4968136;28;20963;-66
2021/11/22 05:03:16;;;;;;;23.17;12.60;;;4.80;99.90;;;3.39;100.00;97923.94;4965533;28;20488;-67
2021/11/22 05:05:44;;;;;;;21.60;11.33;;;4.80;99.90;;;3.42;100.00;97925.44;4950423;28;20501;-67
2021/11/22 05:08:11;;;;;;;22.13;11.83;;;4.80;99.90;;;3.50;100.00;97929.94;4950005;28;20465;-67
2021/11/22 05:10:42;;;;;;;19.17;11.17;;;4.80;99.90;;;3.47;100.00;97938.28;4950356;28;20870;-66
2021/11/22 05:13:10;;;;;;;22.53;11.10;;;4.80;99.90;;;3.58;100.00;97931.75;4972062;28;20472;-67
2021/11/22 05:15:39;;;;;;;24.13;11.00;;;4.90;99.90;;;3.50;100.00;97940.63;4952500;28;20559;-66
2021/11/22 05:18:09;;;;;;;20.13;11.97;;;4.90;99.90;;;3.52;100.00;97938.59;4950758;28;20540;-66
2021/11/22 05:20:38;;;;;;;20.80;11.60;;;4.90;99.90;;;3.60;100.00;97941.25;4968120;28;20465;-66
2021/11/22 05:23:06;;;;;;;19.80;11.00;;;4.90;99.90;;;3.50;100.00;97945.97;4967727;28;20469;-67
2021/11/22 05:25:34;;;;;;;19.40;10.67;;;4.90;99.90;;;3.35;100.00;97933.31;4969968;28;20466;-66
2021/11/22 05:28:03;;;;;;;19.20;10.57;;;4.80;99.90;;;3.58;100.00;97951.28;4946293;28;20454;-67
2021/11/22 05:30:31;;;;;;;21.33;11.40;;;4.90;99.90;;;3.60;100.00;97954.63;4965689;28;20560;-66
2021/11/22 05:33:01;;;;;;;22.00;10.90;;;5.00;99.90;;;3.77;100.00;97951.88;4964286;28;20470;-67
2021/11/22 05:35:29;;;;;;;20.20;11.97;;;5.10;99.90;;;3.55;100.00;97951.59;4966340;28;20469;-66
2021/11/22 05:37:57;;;;;;;24.20;11.90;;;5.00;99.90;;;3.54;100.00;97960.63;4949776;28;20480;-67
2021/11/22 05:40:24;;;;;;;20.23;10.90;;;5.00;99.90;;;3.40;100.00;97957.66;4965807;28;20488;-68
2021/11/22 05:42:53;;;;;;;22.70;11.67;;;4.90;99.90;;;3.42;100.00;97960.19;4951756;28;20457;-67
2021/11/22 05:45:21;;;;;;;20.20;11.53;;;4.90;99.90;;;3.38;100.00;97957.00;4968027;28;20492;-68
2021/11/22 05:47:49;;;;;;;22.37;12.07;;;4.80;99.90;;;3.40;100.00;97960.34;4954550;28;20541;-67
2021/11/22 05:50:17;;;;;;;23.93;13.80;;;4.80;99.90;;;3.39;100.00;97966.69;4965061;28;20516;-67
2021/11/22 05:52:49;;;;;;;23.30;12.73;;;4.80;99.90;;;3.32;100.00;97971.06;4968671;28;20470;-67
2021/11/22 05:55:23;;;;;;;21.03;12.97;;;4.80;99.90;;;3.36;100.00;97972.38;4962707;28;20476;-66
2021/11/22 05:57:50;;;;;;;30.43;14.47;;;4.80;99.90;;;3.43;100.00;97974.38;4967942;28;21154;-66
2021/11/22 06:00:18;;;;;;;28.03;13.90;;;4.80;99.90;;;3.46;100.00;97974.03;4963037;28;20882;-66
2021/11/22 06:02:48;;;;;;;29.90;13.90;;;4.80;99.90;;;3.74;100.00;97987.78;4974306;28;21932;-68
2021/11/22 06:05:16;;;;;;;22.70;13.20;;;5.00;99.90;;;3.54;100.00;97982.84;4967072;28;20898;-68
2021/11/22 06:07:43;;;;;;;23.53;13.50;;;5.00;99.90;;;3.57;100.00;97992.38;4968961;28;20462;-68
2021/11/22 06:10:10;;;;;;;22.23;12.50;;;5.00;99.90;;;3.49;100.00;97989.72;4964622;28;20458;-67
2021/11/22 06:12:38;;;;;;;21.77;12.47;;;4.90;99.90;;;3.48;100.00;97988.03;4975362;28;20948;-68
2021/11/22 06:15:06;;;;;;;26.73;13.40;;;4.90;99.90;;;3.53;100.00;98001.72;4969928;28;20470;-67
2021/11/22 06:17:33;;;;;;;23.40;12.63;;;4.90;99.90;;;3.45;100.00;98005.22;4972544;28;20478;-69
2021/11/22 06:20:02;;;;;;;24.63;12.73;;;4.90;99.90;;;3.38;100.00;97986.38;4951290;28;20453;-69
2021/11/22 06:22:29;;;;;;;23.83;12.57;;;4.90;99.90;;;3.72;100.00;98007.69;4965922;28;20466;-70
2021/11/22 06:24:56;;;;;;;22.67;12.23;;;5.00;99.90;;;3.62;100.00;98011.38;4968825;28;20501;-68
2021/11/22 06:27:24;;;;;;;21.80;12.60;;;5.00;99.90;;;3.78;100.00;98015.00;4962708;28;20476;-67
2021/11/22 06:29:52;;;;;;;20.83;13.17;;;5.10;99.90;;;3.92;100.00;98021.47;4966151;28;20468;-67
2021/11/22 06:32:20;;;;;;;26.67;14.47;;;5.20;99.90;;;3.61;100.00;98007.06;4967719;28;20901;-67
2021/11/22 06:34:47;;;;;;;22.43;14.10;;;5.10;99.90;;;3.76;100.00;98025.06;4967313;28;20457;-67
2021/11/22 06:37:16;;;;;;;23.37;14.30;;;5.10;99.90;;;3.87;100.00;98040.72;4969304;28;20482;-68
2021/11/22 06:39:43;;;;;;;25.90;14.27;;;5.20;99.90;;;3.69;100.00;98039.06;4965755;28;20860;-71
2021/11/22 06:42:10;;;;;;;29.07;15.90;;;5.20;99.90;;;3.72;100.00;98050.47;4952344;28;20802;-69
2021/11/22 06:44:38;;;;;;;28.53;15.70;;;5.10;99.90;;;3.81;100.00;98046.75;4949663;28;21849;-70
2021/11/22 06:47:05;;;;;;;28.50;15.33;;;5.20;99.90;;;3.72;100.00;98048.59;4971214;28;20474;-70
2021/11/22 06:49:33;;;;;;;29.43;15.50;;;5.20;99.90;;;3.72;100.00;98053.94;4970102;28;20524;-71
2021/11/22 06:52:00;;;;;;;30.37;15.93;;;5.10;99.90;;;3.66;100.00;98043.97;4972372;28;20789;-70
2021/11/22 06:54:29;;;;;;;29.13;16.40;;;5.10;99.90;;;3.62;100.00;98048.78;4968300;28;20458;-69
2021/11/22 06:56:56;;;;;;;32.23;17.27;;;5.00;99.90;;;3.73;100.00;98060.13;4971055;28;20477;-70
2021/11/22 06:59:23;;;;;;;29.77;17.93;;;5.10;99.90;;;3.78;100.00;98063.13;4949016;28;20461;-70
2021/11/22 07:01:50;;;;;;;29.60;17.47;;;5.10;99.90;;;3.73;100.00;98066.31;4964160;28;20485;-71
2021/11/22 07:04:18;;;;;;;32.37;18.07;;;5.10;99.90;;;3.63;100.00;98061.16;4971965;28;20464;-69
2021/11/22 07:06:45;;;;;;;33.57;18.50;;;5.10;99.90;;;3.66;100.00;98063.47;4963630;28;20477;-69
2021/11/22 07:09:12;;;;;;;34.57;17.53;;;5.10;99.90;;;3.73;100.00;98073.50;4966681;28;20437;-69
2021/11/22 07:11:40;;;;;;;34.60;17.17;;;5.10;99.90;;;3.63;100.00;98069.16;4964390;28;20477;-76
2021/11/22 07:14:08;;;;;;;34.30;18.97;;;5.10;99.90;;;3.79;100.00;98080.81;4948030;28;20453;-71
2021/11/22 07:16:35;;;;;;;31.07;17.83;;;5.20;99.90;;;3.74;100.00;98078.66;4961215;28;20457;-71
2021/11/22 07:19:04;;;;;;;32.80;19.53;;;5.20;99.90;;;3.76;100.00;98083.84;4969520;28;20470;-71
2021/11/22 07:21:32;;;;;;;32.17;19.10;;;5.20;99.90;;;3.77;100.00;98093.53;4978273;28;21005;-70
2021/11/22 07:23:59;;;;;;;35.03;18.33;;;5.20;99.90;;;3.79;100.00;98104.88;4972419;28;20461;-70
2021/11/22 07:26:26;;;;;;;33.33;18.87;;;5.20;99.90;;;3.78;100.00;98098.69;4971387;28;20520;-70
2021/11/22 07:28:56;;;;;;;36.03;19.03;;;5.20;99.90;;;3.76;100.00;98092.69;4973742;28;20453;-74
2021/11/22 07:31:23;;;;;;;33.80;19.27;;;5.20;99.90;;;3.87;100.00;98114.72;4980606;28;20531;-68
2021/11/22 07:33:50;;;;;;;30.60;17.70;;;5.20;99.90;;;3.90;100.00;98112.56;4969816;28;20850;-69
2021/11/22 07:36:17;;;;;;;31.53;18.80;;;5.30;99.90;;;3.92;100.00;98118.56;4966841;28;20860;-70
2021/11/22 07:38:45;;;;;;;31.40;18.70;;;5.30;99.90;;;4.01;100.00;98123.88;4969964;28;20525;-70
2021/11/22 07:41:12;;;;;;;33.47;16.90;;;5.30;99.90;;;4.08;100.00;98122.19;4971433;28;20465;-70
2021/11/22 07:43:39;;;;;;;33.23;17.13;;;5.40;99.90;;;4.22;100.00;98124.16;4970444;28;20464;-69
2021/11/22 07:46:08;;;;;;;30.77;16.63;;;5.50;99.90;;;4.28;99.99;98119.13;4973499;28;20465;-70
2021/11/22 07:48:35;;;;;;;28.08;17.17;;;5.60;99.60;;;4.19;100.00;98129.03;4971501;28;20481;-70
2021/11/22 07:51:04;;;;;;;26.00;16.30;;;5.50;99.10;;;4.16;100.00;98132.84;4974165;28;20256;-70
2021/11/22 07:53:31;;;;;;;27.73;17.33;;;5.50;99.20;;;4.03;100.00;98114.69;4955177;28;20457;-70
2021/11/22 07:55:59;;;;;;;27.20;16.40;;;5.50;99.90;;;4.23;100.00;98147.22;4971377;28;20455;-71
2021/11/22 07:58:27;;;;;;;29.80;16.63;;;5.50;99.90;;;4.19;99.08;98135.22;4974586;28;20473;-71
2021/11/22 08:00:54;;;;;;;24.80;14.50;;;5.60;98.10;;;4.27;99.77;98141.53;4969367;28;20500;-71
2021/11/22 08:03:22;;;;;;;28.27;16.97;;;5.60;98.70;;;4.24;99.16;98148.91;4954869;28;20508;-69
2021/11/22 08:05:54;;;;;;;24.13;15.27;;;5.60;97.60;;;4.23;99.64;98151.72;4971132;28;20473;-69
2021/11/22 08:08:23;;;;;;;26.13;15.50;;;5.60;97.80;;;4.25;99.01;98160.44;4967896;28;20477;-71
2021/11/22 08:11:04;;;;;;;25.33;17.40;;;5.60;98.50;;;4.22;99.61;98150.06;4966685;28;20466;-69
2021/11/22 08:13:31;;;;;;;27.17;16.93;;;5.60;98.90;;;4.29;99.13;98160.91;4951828;28;20461;-71
2021/11/22 08:16:00;;;;;;;28.23;16.63;;;5.60;99.10;;;4.23;99.32;98152.59;4970118;28;20465;-70
2021/11/22 08:18:29;;;;;;;24.73;14.30;;;5.70;97.50;;;4.26;98.77;98172.81;4968605;28;20473;-69
2021/11/22 08:20:56;;;;;;;27.20;16.50;;;5.60;97.50;;;4.19;100.00;98180.69;4974490;28;20457;-70
2021/11/22 08:23:24;;;;;;;23.00;15.13;;;5.60;97.70;;;4.17;99.74;98180.03;4966839;28;20466;-70
2021/11/22 08:25:51;;;;;;;28.87;14.60;;;5.60;98.50;;;4.16;99.79;98193.56;4970940;28;20852;-68
2021/11/22 08:28:19;;;;;;;23.93;14.93;;;5.50;98.30;;;4.31;99.69;98191.00;4973296;28;21108;-69
2021/11/22 08:30:46;;;;;;;27.27;15.27;;;5.60;99.00;;;4.52;98.63;98182.41;4957503;28;20468;-69
2021/11/22 08:33:15;;;;;;;24.90;15.00;;;5.80;98.80;;;4.37;98.97;98201.84;4967967;28;20465;-70
2021/11/22 08:35:44;;;;;;;24.20;16.17;;;5.80;96.50;;;4.26;99.50;98199.56;4969821;28;21194;-69
2021/11/22 08:38:11;;;;;;;22.27;14.37;;;5.70;96.50;;;4.28;99.23;98191.34;4967535;28;20882;-70
2021/11/22 08:40:41;;;;;;;24.20;15.40;;;5.70;97.70;;;4.37;98.92;98211.75;4966762;28;20461;-70
2021/11/22 08:43:10;;;;;;;23.03;14.93;;;5.70;96.60;;;4.31;98.41;98217.75;4968968;28;20457;-70
2021/11/22 08:45:38;;;;;;;23.10;14.23;;;5.70;96.30;;;4.32;99.00;98211.38;4970900;28;20472;-69
2021/11/22 08:48:06;;;;;;;25.87;15.40;;;5.70;97.20;;;4.34;98.74;98212.91;4966437;28;20454;-69
2021/11/22 08:50:34;;;;;;;25.47;15.10;;;5.70;97.40;;;4.36;98.57;98218.09;4961594;28;20496;-70
2021/11/22 08:53:02;;;;;;;26.07;14.70;;;5.70;96.20;;;4.51;99.16;98221.75;4968115;28;20946;-70
2021/11/22 08:55:30;;;;;;;19.03;13.17;;;5.80;97.20;;;4.58;97.90;98229.91;4968799;28;20454;-70
2021/11/22 08:57:58;;;;;;;25.90;15.27;;;5.90;95.30;;;4.53;97.76;98225.06;4964804;28;20477;-69
2021/11/22 09:00:28;;;;;;;20.43;13.33;;;5.90;94.80;;;4.60;97.81;98238.59;4967991;28;20489;-70
2021/11/22 09:02:55;;;;;;;25.60;14.63;;;5.90;94.90;;;4.71;97.43;98241.94;4967974;28;20576;-70
2021/11/22 09:05:24;;;;;;;21.47;13.47;;;6.00;94.50;;;4.64;96.82;98239.09;4947788;28;20450;-70
2021/11/22 09:07:51;;;;;;;19.07;14.03;;;6.00;94.30;;;4.56;97.91;98241.78;4965749;28;20463;-70
2021/11/22 09:10:21;;;;;;;25.60;15.07;;;6.00;94.60;;;4.71;97.72;98250.78;4969053;28;20469;-71
2021/11/22 09:12:48;;;;;;;21.20;14.10;;;6.10;95.00;;;4.77;96.38;98243.91;4965910;28;20460;-70
2021/11/22 09:15:16;;;;;;;26.27;13.27;;;6.20;93.40;;;5.03;95.39;98254.34;4965314;28;23014;-70
2021/11/22 09:17:44;;;;;;;19.67;13.15;;;6.30;93.60;;;4.90;95.30;98254.06;4941580;28;20467;-69
2021/11/22 09:20:11;;;;;;;20.13;13.60;;;6.30;92.10;;;5.02;94.86;98252.66;4956869;28;20228;-70
2021/11/22 09:22:40;;;;;;;22.13;12.77;;;6.40;92.00;;;5.13;94.58;98247.94;4950953;28;20989;-70
2021/11/22 09:25:09;;;;;;;17.50;11.63;;;6.50;91.90;;;5.23;93.96;98257.44;4962639;28;20987;-69
2021/11/22 09:27:38;;;;;;;19.87;12.23;;;6.50;91.70;;;5.33;92.76;98259.88;4966305;28;20823;-69
2021/11/22 09:30:08;;;;;;;13.33;9.60;;;6.60;90.30;;;5.30;91.99;98265.59;4965094;28;20453;-70
2021/11/22 09:32:36;;;;;;;16.13;11.37;;;6.60;90.20;;;5.38;92.13;98273.63;4963026;28;20461;-69
2021/11/22 09:35:04;;;;;;;12.73;10.57;;;6.70;90.30;;;5.44;91.54;98268.56;4959894;28;21096;-69
2021/11/22 09:37:32;;;;;;;14.38;12.15;;;6.80;89.60;;;5.51;90.58;98272.19;4945520;28;20477;-67
2021/11/22 09:39:59;;;;;;;12.87;9.80;;;6.80;87.00;;;5.44;89.71;98279.28;4963251;28;20573;-67
2021/11/22 09:42:27;;;;;;;13.18;10.70;;;6.90;86.20;;;5.59;89.23;98274.81;4959342;28;20462;-65
2021/11/22 09:44:55;;;;;;;12.23;9.03;;;6.90;86.20;;;5.60;88.94;98281.84;4959017;28;20202;-66
2021/11/22 09:47:23;;;;;;;9.70;8.63;;;6.90;85.10;;;5.45;89.56;98278.25;4953420;28;20466;-66
2021/11/22 09:49:54;;;;;;;10.07;7.53;;;6.90;85.50;;;5.45;88.01;98278.25;4949165;28;20469;-66
2021/11/22 09:52:21;;;;;;;9.40;8.30;;;6.80;84.30;;;5.30;89.80;98284.34;4945664;28;20468;-67
2021/11/22 09:54:49;;;;;;;12.20;9.67;;;6.80;85.40;;;5.27;89.80;98274.00;4963408;28;20449;-66
2021/11/22 09:57:16;;;;;;;9.77;8.77;;;6.70;85.60;;;5.29;89.58;98295.25;4965545;28;20462;-65
2021/11/22 09:59:44;;;;;;;9.70;7.67;;;6.60;85.40;;;5.37;89.54;98288.00;4967942;28;20483;-65
2021/11/22 10:02:13;;;;;;;11.20;8.63;;;6.70;85.90;;;5.46;88.90;98293.31;4959474;28;20485;-65
2021/11/22 10:04:41;;;;;;;15.27;9.53;;;6.80;85.60;;;5.48;88.92;98277.91;4965184;28;20470;-66
2021/11/22 10:07:10;;;;;;;11.73;8.97;;;6.80;85.40;;;5.56;88.73;98291.28;4963660;28;20477;-66
2021/11/22 10:09:45;;;;;;;12.63;8.80;;;6.90;84.70;;;5.48;88.35;98292.16;4968187;28;20549;-66
2021/11/22 10:12:16;;;;;;;8.97;8.07;;;6.90;84.80;;;5.50;89.02;98291.97;4966688;28;20468;-67
2021/11/22 10:14:48;;;;;;;9.50;7.53;;;6.90;84.60;;;5.45;88.96;98305.06;4957752;28;20465;-66
2021/11/22 10:17:32;;;;;;;13.97;9.07;;;6.80;85.00;;;5.58;87.70;98308.00;4965974;28;20969;-67
2021/11/22 10:20:27;;;;;;;13.53;7.90;;;6.90;84.20;;;5.63;88.70;98302.13;4949751;28;20480;-67